Latest Weather Observations for Biloela

IDQ60801

Issued at 11:05 am EST Saturday 29 November 2014 (issued every 30 minutes, with the page automatically refreshed every 10 minutes)

About weather observations | Map of weather stations | Latest weather observations for QLD | Other Formats
Station Details ID: 039089 Name: THANGOOL AIRPORT Lat: -24.49 Lon: 150.57 Height: 193.1 m
Data from the previous 72 hours. | See also: Recent months at Biloela
Date/Time
EST
Temp
°C
App
Temp
°C
Dew
Point
Rel
Hum
%
Delta-T
°C
Wind Press
QNH
hPa
Press
MSL
hPa
Rain
since 9 am
mm
Dir
 
Spd
km/h
Gust
km/h
Spd
kts
Gust
kts
29/11:00am 28.4 26.6 16.0 47 7.7 NE 20 28 11 15 1016.0 - 0.0
29/10:30am 28.4 25.7 15.7 46 7.9 ENE 24 32 13 17 1016.4 - 0.0
29/10:00am 27.3 25.7 16.0 50 7.0 ENE 19 26 10 14 1016.7 - 0.0
29/09:30am 27.8 26.2 16.1 49 7.3 SE 19 24 10 13 1016.8 - 0.0
29/09:00am 26.5 24.2 15.8 51 6.6 E 22 33 12 18 1017.0 1016.2 0.0
29/08:30am 25.7 24.0 16.3 56 5.8 ESE 20 30 11 16 1017.3 - 0.0
29/08:00am 25.9 24.4 16.7 57 5.7 ESE 20 35 11 19 1017.5 - 0.0
29/07:30am 23.9 22.4 16.7 64 4.5 E 20 30 11 16 1017.4 - 0.0
29/07:00am 23.2 22.2 16.5 66 4.1 E 17 24 9 13 1017.2 - 0.0
29/06:30am 22.5 21.5 16.5 69 3.7 ESE 17 22 9 12 1016.9 - 0.0
29/06:00am 21.8 22.6 17.2 75 2.8 ESE 9 15 5 8 1016.5 1015.7 0.0
29/05:30am 21.0 21.4 17.2 79 2.3 ESE 11 15 6 8 1016.3 - 0.0
29/05:00am 21.0 21.3 17.0 78 2.5 ESE 11 17 6 9 1015.9 - 0.0
29/04:30am 21.7 21.3 17.1 75 2.8 ESE 15 22 8 12 1015.7 - 0.0
29/04:00am 21.5 21.5 17.1 76 2.7 ESE 13 20 7 11 1015.3 - 0.0
29/03:30am 20.4 21.0 16.8 80 2.2 ESE 9 11 5 6 1015.3 - 0.0
29/03:00am 20.4 21.1 15.6 74 2.9 E 6 6 3 3 1015.1 1014.2 0.0
29/02:30am 21.2 22.7 16.6 75 2.8 SE 4 7 2 4 1015.6 - 0.0
29/02:00am 20.3 21.6 15.1 72 3.1 ESE 2 7 1 4 1015.6 - 0.0
29/01:30am 19.6 20.3 15.7 78 2.3 SSE 6 7 3 4 1016.1 - 0.0
29/01:00am 19.9 20.5 15.3 75 2.7 SSE 6 7 3 4 1016.1 - 0.0
29/12:30am 20.6 22.2 14.9 70 3.4 CALM 0 6 0 3 1016.3 - 0.0
29/12:00am 22.0 21.8 15.6 67 3.9 ESE 11 13 6 7 1016.5 1015.7 0.0
 
Date/Time
EST
Temp
°C
App
Temp
°C
Dew
Point
Rel
Hum
%
Delta-T
°C
Wind Press
QNH
hPa
Press
MSL
hPa
Rain
since 9 am
mm
Dir
 
Spd
km/h
Gust
km/h
Spd
kts
Gust
kts
28/11:30pm 22.4 21.3 15.3 64 4.3 ESE 15 20 8 11 1016.7 - 0.0
28/11:00pm 23.1 21.3 15.4 62 4.7 ESE 19 26 10 14 1017.2 - 0.0
28/10:30pm 23.4 23.0 16.2 64 4.4 E 13 20 7 11 1017.2 - 0.0
28/10:00pm 23.6 22.7 15.9 62 4.7 E 15 19 8 10 1017.3 - 0.0
28/09:30pm 23.7 22.4 15.7 61 4.9 E 17 24 9 13 1017.1 - 0.0
28/09:00pm 24.1 22.3 15.6 59 5.2 E 19 24 10 13 1016.6 1015.8 0.0
28/08:30pm 24.4 23.0 15.6 58 5.4 E 17 22 9 12 1016.1 - 0.0
28/08:00pm 25.0 23.0 15.6 56 5.7 E 20 28 11 15 1015.8 - 0.0
28/07:30pm 25.9 23.7 15.9 54 6.2 ENE 22 28 12 15 1015.2 - 0.0
28/07:00pm 26.2 24.2 15.6 52 6.5 ENE 20 26 11 14 1015.0 - 0.0
28/06:30pm 26.6 25.0 15.0 49 7.1 E 17 22 9 12 1014.7 - 0.0
28/06:00pm 27.5 24.9 14.8 45 7.7 ENE 22 28 12 15 1014.1 1013.2 0.0
28/05:30pm 28.8 25.3 14.6 42 8.7 E 26 35 14 19 1013.6 - 0.0
28/05:00pm 28.7 25.2 15.6 45 8.1 E 28 33 15 18 1013.3 - 0.0
28/04:30pm 29.0 24.5 15.5 44 8.4 E 33 46 18 25 1013.0 - 0.0
28/04:00pm 30.3 27.8 15.2 40 9.3 NE 22 32 12 17 1013.0 - 0.0
28/03:30pm 31.5 29.7 15.5 38 10.0 NE 19 24 10 13 1012.9 - 0.0
28/03:00pm 31.1 29.2 14.3 36 10.3 ENE 17 26 9 14 1013.3 1012.4 0.0
28/02:30pm 29.7 27.4 14.7 40 9.2 E 20 28 11 15 1013.8 - 0.0
28/02:00pm 31.1 29.5 13.8 34 10.5 ESE 15 28 8 15 1013.8 - 0.0
28/01:30pm 33.1 31.6 14.2 32 11.6 E 15 24 8 13 1014.3 - 0.0
28/01:00pm 30.9 29.2 13.7 35 10.4 ESE 15 28 8 15 1014.6 - 0.0
28/12:30pm 30.7 29.6 14.3 36 10.0 E 13 22 7 12 1015.0 - 0.0
28/12:00pm 30.0 29.2 14.1 37 9.7 E 11 20 6 11 1015.2 1014.3 0.0
28/11:30am 30.6 29.9 14.2 36 10.0 ESE 11 20 6 11 1015.4 - 0.0
28/11:00am 30.7 28.5 14.8 38 9.8 E 20 32 11 17 1015.8 - 0.0
28/10:30am 29.6 28.5 15.3 41 8.8 NE 15 24 8 13 1016.2 - 0.0
28/10:00am 27.9 27.6 15.5 46 7.6 E 11 20 6 11 1016.6 - 0.0
28/09:30am 28.2 27.9 16.5 49 7.3 ENE 13 22 7 12 1016.8 - 0.0
28/09:00am 27.6 27.2 17.2 53 6.6 E 15 28 8 15 1017.0 1016.2 0.0
28/08:30am 26.5 27.2 17.0 56 6.0 ESE 9 19 5 10 1017.1 - 0.0
28/08:00am 26.2 26.0 16.7 56 5.9 ESE 13 20 7 11 1017.4 - 0.0
28/07:30am 24.8 24.5 16.5 60 5.1 SE 13 20 7 11 1017.2 - 0.0
28/07:00am 24.3 24.3 17.3 65 4.4 E 13 17 7 9 1017.0 - 0.0
28/06:30am 22.7 24.2 17.6 73 3.2 ESE 6 9 3 5 1016.6 - 0.0
28/06:00am 22.0 23.5 18.0 78 2.5 SSE 7 7 4 4 1016.5 1015.7 0.0
28/05:30am 19.4 21.8 17.0 86 1.5 CALM 0 0 0 0 1016.1 - 0.0
28/05:00am 19.2 21.4 16.6 85 1.6 CALM 0 0 0 0 1015.5 - 0.0
28/04:30am 19.7 22.0 16.7 83 1.8 CALM 0 0 0 0 1015.1 - 0.0
28/04:00am 20.1 22.5 17.1 83 1.8 CALM 0 0 0 0 1015.0 - 0.0
28/03:30am 20.4 22.0 17.0 81 2.1 SE 4 7 2 4 1014.7 - 0.0
28/03:00am 20.4 21.2 17.4 83 1.9 S 9 11 5 6 1014.6 1013.7 0.0
28/02:30am 19.9 20.3 16.2 79 2.2 NNW 9 11 5 6 1014.0 - 0.0
28/02:00am 21.2 23.7 17.2 78 2.5 CALM 0 0 0 0 1014.1 - 0.0
28/01:30am 22.2 23.0 17.3 74 3.0 E 9 11 5 6 1014.4 - 0.0
28/01:00am 23.1 22.6 17.8 72 3.3 E 17 20 9 11 1014.9 - 0.0
28/12:30am 23.3 25.1 18.4 74 3.1 SE 6 11 3 6 1015.4 - 0.0
28/12:00am 23.1 24.4 18.4 75 3.0 NE 9 11 5 6 1015.3 1014.4 0.0
 
Date/Time
EST
Temp
°C
App
Temp
°C
Dew
Point
Rel
Hum
%
Delta-T
°C
Wind Press
QNH
hPa
Press
MSL
hPa
Rain
since 9 am
mm
Dir
 
Spd
km/h
Gust
km/h
Spd
kts
Gust
kts
27/11:30pm 22.7 24.3 17.8 74 3.1 ENE 6 9 3 5 1015.0 - 0.0
27/11:00pm 23.3 24.6 18.4 74 3.1 ENE 9 13 5 7 1015.1 - 0.0
27/10:30pm 23.8 25.1 18.4 72 3.4 E 9 13 5 7 1015.3 - 0.0
27/10:00pm 23.6 26.0 18.0 71 3.5 NNE 2 11 1 6 1015.3 - 0.0
27/09:30pm 23.9 25.5 17.9 69 3.8 NE 6 9 3 5 1015.0 - 0.0
27/09:00pm 24.3 25.2 17.5 66 4.3 E 9 17 5 9 1014.4 1013.5 0.0
27/08:30pm 25.0 25.6 17.7 64 4.6 ENE 11 19 6 10 1014.1 - 0.0
27/08:00pm 25.6 27.1 18.0 63 4.8 ENE 7 17 4 9 1013.8 - 0.0
27/07:30pm 26.2 26.6 18.1 61 5.2 NNE 13 20 7 11 1013.5 - 0.0
27/07:00pm 26.9 26.2 18.2 59 5.6 NE 19 26 10 14 1013.0 - 0.0
27/06:30pm 28.0 27.1 18.1 55 6.3 NE 20 30 11 16 1012.6 - 0.0
27/06:00pm 28.9 27.8 17.7 50 7.2 NNE 20 32 11 17 1012.2 1011.4 0.0
27/05:30pm 30.7 29.2 14.3 36 10.0 NNE 15 20 8 11 1011.7 - 0.0
27/05:00pm 32.1 31.8 12.8 30 11.6 ENE 6 9 3 5 1011.5 - 0.0
27/04:30pm 32.8 32.4 12.4 29 12.2 NE 6 13 3 7 1011.4 - 0.0
27/04:00pm 32.5 32.2 13.2 31 11.7 NNE 7 11 4 6 1011.5 - 0.0
27/03:30pm 32.2 30.5 12.4 30 11.8 E 13 19 7 10 1011.7 - 0.0
27/03:00pm 33.7 32.8 13.7 30 12.3 S 11 22 6 12 1011.8 1010.9 0.0
27/02:30pm 32.4 31.3 13.1 31 11.7 S 11 20 6 11 1012.1 - 0.0
27/02:00pm 31.9 30.5 12.2 30 11.7 NE 11 17 6 9 1012.6 - 0.0
27/01:30pm 32.5 31.6 13.7 32 11.5 WNW 11 20 6 11 1012.9 - 0.0
27/01:00pm 33.5 32.3 15.0 32 11.5 N 15 22 8 12 1013.3 - 0.0
27/12:30pm 32.5 32.8 15.1 35 10.8 SSE 7 15 4 8 1013.9 - 0.0
27/12:00pm 31.1 30.7 15.1 38 9.9 NNW 11 17 6 9 1014.5 1013.6 0.0
27/11:30am 30.3 30.8 15.6 41 9.2 S 7 13 4 7 1014.8 - 0.0
27/11:00am 29.6 29.2 16.1 44 8.4 N 13 20 7 11 1015.4 - 0.0
27/10:30am 28.6 29.1 16.5 48 7.6 NW 9 20 5 11 1015.7 - 0.0
27/10:00am 28.2 28.0 16.8 50 7.2 WNW 13 19 7 10 1016.4 - 0.0
27/09:30am 27.5 28.2 16.1 49 7.1 S 7 13 4 7 1016.6 - 0.0
27/09:00am 26.1 27.3 16.9 57 5.7 W 6 11 3 6 1016.8 1016.0 0.0
27/08:30am 25.7 26.7 16.8 58 5.6 WNW 7 11 4 6 1017.0 - 0.0
27/08:00am 25.3 26.4 17.2 61 5.1 S 7 11 4 6 1016.9 - 0.0
27/07:30am 24.4 25.5 17.1 63 4.6 SSW 7 9 4 5 1017.0 - 0.0
27/07:00am 22.5 23.6 17.2 72 3.3 SSE 7 9 4 5 1017.0 - 0.0
27/06:30am 20.3 21.3 16.9 81 2.1 S 7 9 4 5 1017.0 - 0.0
27/06:00am 18.7 19.6 16.5 87 1.3 E 7 9 4 5 1016.3 1015.4 0.0
27/05:30am 18.5 19.3 16.3 87 1.3 E 7 11 4 6 1016.0 - 0.0
27/05:00am 17.2 17.4 14.8 86 1.4 ENE 7 9 4 5 1015.7 - 0.0
27/04:30am 17.5 18.0 15.1 86 1.4 ENE 6 9 3 5 1015.4 - 0.0
27/04:00am 17.5 19.2 15.1 86 1.4 CALM 0 0 0 0 1015.2 - 0.0
27/03:30am 18.2 20.0 15.6 85 1.5 CALM 0 0 0 0 1014.9 - 0.0
27/03:00am 18.3 18.7 14.8 80 2.0 N 6 7 3 4 1014.9 1014.0 0.0
27/02:30am 19.8 21.8 16.1 79 2.2 CALM 0 0 0 0 1014.9 - 0.0
27/02:00am 20.3 22.3 15.9 76 2.6 CALM 0 0 0 0 1015.3 - 0.0
27/01:30am 21.4 22.3 16.6 74 2.9 ESE 7 9 4 5 1015.5 - 0.0
27/01:00am 21.7 22.3 16.9 74 3.0 E 9 13 5 7 1015.8 - 0.0
27/12:30am 21.5 22.2 17.1 76 2.7 ESE 9 13 5 7 1016.3 - 0.0
27/12:00am 21.3 22.5 16.9 76 2.7 E 6 7 3 4 1016.6 1015.8 0.0
 
Date/Time
EST
Temp
°C
App
Temp
°C
Dew
Point
Rel
Hum
%
Delta-T
°C
Wind Press
QNH
hPa
Press
MSL
hPa
Rain
since 9 am
mm
Dir
 
Spd
km/h
Gust
km/h
Spd
kts
Gust
kts
26/11:30pm 21.6 23.9 17.6 78 2.5 ENE 2 7 1 4 1016.8 - 0.0
26/11:00pm 21.6 24.2 17.4 77 2.6 CALM 0 0 0 0 1017.0 - 0.0
26/10:30pm 22.1 24.5 17.0 73 3.1 CALM 0 0 0 0 1017.1 - 0.0
26/10:00pm 22.5 25.1 17.4 73 3.2 CALM 0 0 0 0 1016.9 - 0.0
26/09:30pm 23.5 25.0 17.7 70 3.6 NE 6 9 3 5 1016.5 - 0.0
26/09:00pm 24.1 25.2 18.1 69 3.8 NNE 9 13 5 7 1016.0 1015.1 0.0
26/08:30pm 24.6 25.7 18.1 67 4.1 N 9 15 5 8 1015.6 - 0.0
26/08:00pm 24.9 25.1 17.6 64 4.6 NNE 13 17 7 9 1015.4 - 0.0
26/07:30pm 25.5 24.4 17.4 61 5.1 NE 19 26 10 14 1015.2 - 0.0
26/07:00pm 26.2 25.5 17.3 58 5.6 NNE 17 26 9 14 1014.6 - 0.0
26/06:30pm 27.3 26.4 16.9 53 6.5 NNE 17 24 9 13 1013.9 - 0.0
26/06:00pm 28.4 26.2 17.0 50 7.2 NE 24 33 13 18 1013.2 1012.3 0.0
26/05:30pm 29.6 27.7 16.8 46 8.1 NE 22 30 12 16 1012.8 - 0.0
26/05:00pm 30.2 28.5 16.2 42 8.8 NE 20 32 11 17 1012.6 - 0.0
26/04:30pm 31.2 29.6 16.0 40 9.5 NNE 19 28 10 15 1012.3 - 0.0
26/04:00pm 31.5 29.3 15.9 39 9.8 NE 22 35 12 19 1012.1 - 0.0
26/03:30pm 32.6 30.6 15.6 36 10.7 NE 20 28 11 15 1012.1 - 0.0
26/03:00pm 32.4 31.9 15.8 36 10.4 N 13 20 7 11 1012.3 1011.5 0.0
26/02:30pm 31.9 30.0 15.8 38 10.1 NE 20 26 11 14 1012.7 - 0.0
26/02:00pm 31.6 31.9 16.0 39 9.8 NE 9 11 5 6 1013.1 - 0.0
26/01:30pm 32.4 31.8 16.7 39 10.0 N 15 22 8 12 1013.4 - 0.0
26/01:00pm 31.8 31.3 14.9 36 10.5 NE 11 20 6 11 1013.6 - 0.0
26/12:30pm 32.6 31.6 15.6 36 10.7 N 15 24 8 13 1014.0 - 0.0
26/12:00pm 30.4 29.3 15.3 40 9.4 N 15 20 8 11 1014.6 1013.7 0.0
26/11:30am 30.4 30.4 15.3 40 9.4 NNE 9 17 5 9 1015.2 - 0.0

Other Formats:

Comma delimited format used in spreadsheet applications
http://www.bom.gov.au/fwo/IDQ60801/IDQ60801.94376.axf

JavaScript Object Notation format (JSON) in row-major order
http://www.bom.gov.au/fwo/IDQ60801/IDQ60801.94376.json